createdAt,value
2023-04-23T00:02:22.788Z,12.90
2023-04-23T00:04:58.907Z,12.80
2023-04-23T00:07:34.346Z,12.80
2023-04-23T00:10:09.606Z,12.70
2023-04-23T00:12:43.705Z,12.80
2023-04-23T00:15:17.706Z,12.70
2023-04-23T00:17:52.093Z,12.70
2023-04-23T00:20:25.106Z,12.70
2023-04-23T00:22:58.141Z,12.70
2023-04-23T00:25:31.105Z,12.80
2023-04-23T00:28:04.364Z,12.80
2023-04-23T00:30:37.320Z,12.80
2023-04-23T00:33:11.808Z,12.80
2023-04-23T00:35:44.806Z,12.70
2023-04-23T00:38:17.814Z,12.60
2023-04-23T00:40:50.876Z,12.60
2023-04-23T00:43:24.068Z,12.60
2023-04-23T00:45:57.780Z,12.50
2023-04-23T00:48:33.177Z,12.50
2023-04-23T00:51:07.652Z,12.50
2023-04-23T00:53:40.654Z,12.60
2023-04-23T00:56:13.812Z,12.60
2023-04-23T00:58:47.192Z,12.70
2023-04-23T01:01:20.804Z,12.80
2023-04-23T01:03:56.511Z,12.80
2023-04-23T01:06:31.631Z,12.80
2023-04-23T01:09:06.107Z,12.80
2023-04-23T01:11:43.918Z,12.80
2023-04-23T01:14:17.055Z,12.80
2023-04-23T01:16:52.682Z,12.80
2023-04-23T01:19:27.214Z,12.80
2023-04-23T01:22:02.283Z,12.80
2023-04-23T01:24:36.811Z,12.80
2023-04-23T01:27:10.169Z,12.80
2023-04-23T01:29:43.764Z,12.80
2023-04-23T01:32:17.689Z,12.80
2023-04-23T01:34:51.590Z,12.80
2023-04-23T01:37:25.431Z,12.80
2023-04-23T01:40:00.938Z,12.80
2023-04-23T01:42:34.032Z,12.80
2023-04-23T01:45:09.038Z,12.80
2023-04-23T01:47:42.673Z,12.80
2023-04-23T01:50:16.131Z,12.70
2023-04-23T01:52:49.097Z,12.70
2023-04-23T01:55:23.675Z,12.70
2023-04-23T01:57:57.201Z,12.70
2023-04-23T02:00:30.248Z,12.60
2023-04-23T02:03:03.447Z,12.70
2023-04-23T02:05:37.745Z,12.80
2023-04-23T02:08:11.826Z,12.90
2023-04-23T02:10:46.195Z,12.80
2023-04-23T02:13:19.234Z,12.80
2023-04-23T02:15:52.245Z,12.80
2023-04-23T02:18:25.347Z,12.80
2023-04-23T02:20:59.762Z,12.80
2023-04-23T02:23:32.763Z,12.80
2023-04-23T02:26:07.802Z,12.80
2023-04-23T02:28:41.294Z,12.80
2023-04-23T02:31:14.427Z,12.90
2023-04-23T02:33:47.935Z,12.90
2023-04-23T02:36:20.973Z,12.90
2023-04-23T02:38:53.945Z,12.90
2023-04-23T02:41:28.328Z,12.90
2023-04-23T02:44:01.362Z,12.90
2023-04-23T02:46:36.224Z,12.90
2023-04-23T02:49:09.503Z,12.80
2023-04-23T02:51:42.581Z,12.80
2023-04-23T02:54:15.940Z,12.70
2023-04-23T02:56:50.567Z,12.70
2023-04-23T02:59:23.560Z,12.70
2023-04-23T03:01:56.567Z,12.60
2023-04-23T03:04:33.200Z,12.60
2023-04-23T03:07:06.219Z,12.60
2023-04-23T03:09:39.221Z,12.50
2023-04-23T03:12:13.580Z,12.50
2023-04-23T03:14:46.586Z,12.40
2023-04-23T03:17:19.611Z,12.40
2023-04-23T03:19:52.725Z,12.30
2023-04-23T03:22:25.899Z,12.30
2023-04-23T03:24:58.903Z,12.30
2023-04-23T03:27:33.253Z,12.20
2023-04-23T03:30:08.805Z,12.20
2023-04-23T03:32:41.814Z,12.20
2023-04-23T03:35:14.920Z,12.10
2023-04-23T03:37:47.987Z,12.00
2023-04-23T03:40:22.085Z,11.90
2023-04-23T03:42:57.852Z,11.90
2023-04-23T03:45:32.006Z,11.90
2023-04-23T03:48:05.261Z,11.90
2023-04-23T03:50:40.463Z,11.90
2023-04-23T03:53:13.516Z,11.90
2023-04-23T03:55:46.497Z,11.80
2023-04-23T03:58:21.324Z,11.80
2023-04-23T04:00:54.383Z,11.70
2023-04-23T04:03:27.672Z,11.70
2023-04-23T04:06:00.892Z,11.70
2023-04-23T04:08:33.907Z,11.70
2023-04-23T04:11:06.992Z,11.70
2023-04-23T04:13:41.341Z,11.60
2023-04-23T04:16:14.392Z,11.60
2023-04-23T04:18:47.407Z,11.60
2023-04-23T04:21:20.667Z,11.60
2023-04-23T04:23:53.670Z,11.60
2023-04-23T04:26:27.064Z,11.60
2023-04-23T04:29:01.911Z,11.60
2023-04-23T04:31:35.885Z,11.50
2023-04-23T04:34:10.616Z,11.60
2023-04-23T04:36:43.918Z,11.60
2023-04-23T04:39:17.025Z,11.60
2023-04-23T04:41:50.076Z,11.60
2023-04-23T04:44:25.242Z,11.70
2023-04-23T04:46:58.432Z,11.70
2023-04-23T04:49:31.501Z,11.70
2023-04-23T04:52:04.536Z,11.70
2023-04-23T04:54:37.545Z,11.70
2023-04-23T04:57:10.955Z,11.70
2023-04-23T04:59:45.907Z,11.70
2023-04-23T05:02:20.069Z,11.70
2023-04-23T05:04:53.586Z,11.70
2023-04-23T05:07:26.636Z,11.70
2023-04-23T05:09:59.643Z,11.70
2023-04-23T05:12:32.640Z,11.70
2023-04-23T05:15:09.276Z,11.80
2023-04-23T05:17:42.643Z,11.80
2023-04-23T05:20:15.684Z,11.80
2023-04-23T05:22:49.367Z,11.80
2023-04-23T05:25:22.449Z,11.70
2023-04-23T05:27:55.667Z,11.70
2023-04-23T05:30:30.419Z,11.70
2023-04-23T05:33:03.478Z,11.70
2023-04-23T05:35:36.971Z,11.70
2023-04-23T05:38:10.429Z,11.70
2023-04-23T05:40:43.433Z,11.70
2023-04-23T05:43:16.544Z,11.70
2023-04-23T05:45:50.925Z,11.70
2023-04-23T05:48:24.178Z,12.00
2023-04-23T05:50:57.274Z,12.30
2023-04-23T05:53:30.467Z,12.60
2023-04-23T05:56:03.476Z,12.60
2023-04-23T05:58:36.536Z,12.60
2023-04-23T06:01:11.109Z,12.70
2023-04-23T06:03:45.624Z,12.80
2023-04-23T06:06:18.936Z,12.80
2023-04-23T06:08:51.940Z,12.80
2023-04-23T06:11:25.103Z,12.80
2023-04-23T06:13:58.041Z,12.80
2023-04-23T06:16:32.457Z,12.80
2023-04-23T06:19:06.557Z,12.70
2023-04-23T06:21:39.595Z,12.70
2023-04-23T06:24:12.652Z,12.70
2023-04-23T06:26:46.046Z,12.60
2023-04-23T06:29:19.130Z,12.60
2023-04-23T06:31:56.096Z,12.60
2023-04-23T06:34:29.206Z,12.70
2023-04-23T06:37:02.447Z,12.80
2023-04-23T06:39:35.751Z,12.70
2023-04-23T06:42:08.744Z,12.70
2023-04-23T06:44:41.941Z,12.60
2023-04-23T06:47:16.594Z,12.60
2023-04-23T06:49:49.577Z,12.60
2023-04-23T06:52:22.681Z,12.70
2023-04-23T06:54:55.741Z,12.80
2023-04-23T06:57:29.839Z,12.80
2023-04-23T07:00:03.132Z,12.80
2023-04-23T07:02:37.783Z,12.90
2023-04-23T07:05:11.687Z,12.90
2023-04-23T07:07:44.949Z,12.90
2023-04-23T07:10:18.463Z,12.90
2023-04-23T07:12:51.540Z,13.00
2023-04-23T07:15:24.771Z,13.00
2023-04-23T07:17:59.215Z,13.20
2023-04-23T07:20:33.038Z,13.60
2023-04-23T07:23:06.526Z,13.80
2023-04-23T07:25:39.531Z,14.00
2023-04-23T07:28:12.713Z,14.10
2023-04-23T07:30:45.749Z,14.00
2023-04-23T07:33:20.396Z,14.10
2023-04-23T07:35:53.584Z,14.00
2023-04-23T07:38:26.559Z,14.00
2023-04-23T07:40:59.576Z,13.90
2023-04-23T07:43:32.649Z,14.00
2023-04-23T07:46:06.164Z,13.90
2023-04-23T07:48:40.580Z,13.80
2023-04-23T07:51:14.010Z,13.80
2023-04-23T07:53:49.091Z,13.80
2023-04-23T07:56:24.446Z,13.90
2023-04-23T07:58:58.271Z,13.90
2023-04-23T08:01:31.355Z,14.00
2023-04-23T08:04:06.005Z,14.00
2023-04-23T08:06:39.250Z,14.10
2023-04-23T08:09:12.242Z,14.30
2023-04-23T08:11:46.140Z,14.30
2023-04-23T08:14:19.495Z,14.30
2023-04-23T08:16:52.598Z,14.40
2023-04-23T08:19:31.590Z,14.40
2023-04-23T08:22:04.696Z,14.50
2023-04-23T08:24:37.776Z,14.60
2023-04-23T08:27:11.526Z,15.00
2023-04-23T08:29:44.519Z,15.00
2023-04-23T08:32:17.564Z,15.10
2023-04-23T08:34:52.105Z,15.20
2023-04-23T08:37:30.779Z,15.60
2023-04-23T08:40:06.116Z,16.00
2023-04-23T08:42:44.549Z,16.10
2023-04-23T08:45:17.750Z,16.00
2023-04-23T08:47:51.264Z,16.00
2023-04-23T08:50:26.528Z,16.20
2023-04-23T08:53:00.005Z,16.20
2023-04-23T08:55:35.756Z,16.20
2023-04-23T08:58:08.779Z,16.40
2023-04-23T09:00:42.572Z,16.70
2023-04-23T09:03:16.968Z,17.10
2023-04-23T09:05:53.103Z,17.40
2023-04-23T09:08:26.325Z,17.60
2023-04-23T09:11:02.766Z,17.40
2023-04-23T09:16:10.543Z,17.50
2023-04-23T09:18:43.855Z,17.10
2023-04-23T09:21:18.265Z,17.30
2023-04-23T09:23:53.043Z,17.60
2023-04-23T09:26:26.922Z,17.80
2023-04-23T09:28:59.962Z,17.90
2023-04-23T09:31:33.040Z,18.10
2023-04-23T09:34:08.298Z,18.30
2023-04-23T09:36:43.363Z,18.60
2023-04-23T09:39:18.972Z,18.60
2023-04-23T09:41:54.373Z,18.40
2023-04-23T09:44:29.569Z,18.50
2023-04-23T09:47:09.832Z,18.70
2023-04-23T09:49:50.220Z,19.00
2023-04-23T09:52:24.723Z,19.00
2023-04-23T09:54:59.404Z,19.10
2023-04-23T09:57:37.301Z,19.20
2023-04-23T10:00:21.266Z,19.30
2023-04-23T10:02:54.921Z,19.20
2023-04-23T10:05:36.880Z,19.30
2023-04-23T10:08:20.246Z,19.20
2023-04-23T10:11:03.162Z,19.10
2023-04-23T10:13:43.360Z,19.20
2023-04-23T10:16:24.076Z,19.10
2023-04-23T10:19:03.113Z,19.10
2023-04-23T10:21:49.989Z,19.20
2023-04-23T10:24:28.443Z,19.10
2023-04-23T10:27:04.111Z,19.10
2023-04-23T10:29:37.126Z,19.10
2023-04-23T10:32:10.259Z,19.10
2023-04-23T10:34:43.802Z,19.00
2023-04-23T10:37:19.293Z,19.00
2023-04-23T10:39:57.168Z,18.70
2023-04-23T10:42:30.495Z,18.90
2023-04-23T10:45:22.610Z,19.20
2023-04-23T10:47:57.687Z,19.40
2023-04-23T10:50:35.907Z,19.30
2023-04-23T10:53:20.328Z,19.10
2023-04-23T10:56:07.514Z,19.20
2023-04-23T10:58:50.453Z,19.30
2023-04-23T11:01:26.747Z,19.00
2023-04-23T11:04:00.462Z,18.80
2023-04-23T11:06:56.334Z,18.90
2023-04-23T11:09:31.593Z,18.90
2023-04-23T11:12:10.468Z,19.00
2023-04-23T11:14:51.287Z,19.00
2023-04-23T11:17:26.149Z,19.10
2023-04-23T11:20:11.310Z,19.00
2023-04-23T11:22:45.977Z,19.00
2023-04-23T11:25:22.518Z,19.10
2023-04-23T11:27:59.276Z,19.10
2023-04-23T11:30:33.590Z,19.10
2023-04-23T11:33:06.758Z,19.00
2023-04-23T11:35:41.850Z,19.20
2023-04-23T11:38:14.867Z,19.40
2023-04-23T11:40:48.471Z,19.70
2023-04-23T11:43:23.250Z,19.60
2023-04-23T11:45:57.160Z,19.60
2023-04-23T11:48:30.221Z,19.50
2023-04-23T11:51:03.284Z,19.30
2023-04-23T11:53:36.353Z,19.20
2023-04-23T11:56:10.386Z,19.40
2023-04-23T11:58:44.819Z,19.50
2023-04-23T12:01:17.821Z,19.70
2023-04-23T12:03:50.981Z,20.10
2023-04-23T12:06:24.060Z,20.10
2023-04-23T12:08:57.048Z,19.90
2023-04-23T12:11:30.083Z,19.70
2023-04-23T12:14:04.717Z,19.60
2023-04-23T12:16:41.407Z,19.70
2023-04-23T12:19:16.108Z,19.60
2023-04-23T12:21:51.580Z,19.70
2023-04-23T12:24:26.119Z,19.60
2023-04-23T12:27:02.688Z,19.90
2023-04-23T12:29:37.368Z,19.90
2023-04-23T12:32:12.885Z,19.90
2023-04-23T12:34:54.642Z,19.90
2023-04-23T12:37:30.255Z,20.30
2023-04-23T12:40:07.042Z,20.10
2023-04-23T12:42:40.106Z,20.00
2023-04-23T12:45:14.589Z,19.70
2023-04-23T12:47:47.667Z,19.50
2023-04-23T12:50:20.674Z,19.50
2023-04-23T12:52:53.673Z,19.40
2023-04-23T12:55:26.677Z,19.70
2023-04-23T12:58:00.881Z,19.80
2023-04-23T13:00:35.409Z,19.90
2023-04-23T13:03:08.627Z,20.10
2023-04-23T13:05:41.793Z,20.40
2023-04-23T13:08:14.777Z,20.40
2023-04-23T13:10:47.764Z,20.40
2023-04-23T13:13:20.808Z,20.40
2023-04-23T13:15:55.323Z,20.20
2023-04-23T13:18:28.329Z,20.10
2023-04-23T13:21:01.640Z,20.20
2023-04-23T13:23:34.646Z,20.40
2023-04-23T13:26:08.325Z,20.60
2023-04-23T13:28:41.561Z,20.30
2023-04-23T13:31:15.982Z,20.40
2023-04-23T13:33:49.006Z,20.40
2023-04-23T13:36:22.258Z,20.60
2023-04-23T13:38:55.319Z,20.50
2023-04-23T13:41:28.361Z,20.50
2023-04-23T13:44:01.358Z,20.50
2023-04-23T13:46:35.814Z,20.60
2023-04-23T13:49:09.020Z,20.70
2023-04-23T13:51:42.001Z,20.70
2023-04-23T13:54:14.974Z,20.50
2023-04-23T13:56:48.032Z,20.70
2023-04-23T13:59:21.127Z,20.50
2023-04-23T14:01:55.492Z,20.30
2023-04-23T14:04:28.613Z,20.30
2023-04-23T14:07:01.624Z,20.60
2023-04-23T14:09:35.507Z,20.60
2023-04-23T14:12:08.676Z,20.20
2023-04-23T14:14:41.728Z,20.30
2023-04-23T14:17:16.042Z,20.10
2023-04-23T14:19:49.242Z,20.20
2023-04-23T14:22:22.285Z,20.20
2023-04-23T14:24:58.670Z,20.30
2023-04-23T14:27:35.587Z,20.30
2023-04-23T14:30:16.911Z,20.30
2023-04-23T14:32:51.701Z,20.30
2023-04-23T14:35:35.925Z,20.20
2023-04-23T14:38:15.398Z,20.30
2023-04-23T14:40:48.388Z,20.40
2023-04-23T14:43:21.688Z,20.60
2023-04-23T14:45:54.706Z,20.70
2023-04-23T14:48:29.169Z,20.40
2023-04-23T14:51:02.165Z,20.40
2023-04-23T14:53:35.171Z,20.50
2023-04-23T14:56:08.233Z,20.70
2023-04-23T14:58:41.920Z,20.60
2023-04-23T15:01:14.967Z,20.30
2023-04-23T15:03:49.526Z,19.90
2023-04-23T15:06:23.221Z,19.90
2023-04-23T15:08:56.331Z,19.90
2023-04-23T15:11:29.466Z,19.90
2023-04-23T15:14:08.620Z,19.90
2023-04-23T15:16:48.952Z,19.90
2023-04-23T15:19:24.119Z,20.10
2023-04-23T15:21:57.172Z,20.20
2023-04-23T15:24:30.173Z,20.30
2023-04-23T15:27:03.436Z,20.40
2023-04-23T15:29:36.455Z,20.40
2023-04-23T15:32:10.227Z,20.20
2023-04-23T15:34:44.664Z,20.10
2023-04-23T15:37:19.773Z,20.10
2023-04-23T15:39:53.636Z,19.90
2023-04-23T15:42:26.926Z,20.00
2023-04-23T15:44:59.941Z,20.00
2023-04-23T15:47:32.994Z,19.90
2023-04-23T15:50:09.044Z,20.10
2023-04-23T15:52:42.523Z,19.80
2023-04-23T15:55:15.560Z,19.90
2023-04-23T15:57:48.545Z,19.80
2023-04-23T16:00:21.697Z,19.70
2023-04-23T16:02:54.960Z,19.60
2023-04-23T16:05:29.899Z,19.50
2023-04-23T16:08:03.094Z,19.50
2023-04-23T16:10:36.660Z,19.60
2023-04-23T16:13:09.693Z,19.60
2023-04-23T16:15:42.971Z,19.50
2023-04-23T16:18:16.038Z,19.50
2023-04-23T16:20:50.442Z,19.50
2023-04-23T16:23:23.444Z,19.50
2023-04-23T16:25:57.172Z,19.50
2023-04-23T16:28:30.178Z,19.40
2023-04-23T16:31:03.704Z,19.30
2023-04-23T16:33:36.701Z,19.30
2023-04-23T16:36:12.965Z,19.30
2023-04-23T16:38:49.233Z,19.20
2023-04-23T16:41:22.482Z,19.30
2023-04-23T16:43:55.516Z,19.10
2023-04-23T16:46:30.869Z,19.00
2023-04-23T16:49:04.228Z,18.90
2023-04-23T16:51:38.893Z,18.70
2023-04-23T16:54:12.089Z,18.50
2023-04-23T16:56:45.932Z,18.30
2023-04-23T16:59:18.927Z,18.20
2023-04-23T17:01:51.955Z,18.10
2023-04-23T17:04:25.309Z,17.50
2023-04-23T17:06:59.711Z,16.70
2023-04-23T17:09:32.720Z,15.50
2023-04-23T17:12:05.980Z,14.70
2023-04-23T17:14:39.000Z,14.30
2023-04-23T17:17:12.062Z,13.90
2023-04-23T17:19:45.670Z,13.50
2023-04-23T17:22:20.018Z,13.40
2023-04-23T17:24:53.085Z,13.20
2023-04-23T17:27:26.144Z,13.10
2023-04-23T17:29:59.299Z,13.00
2023-04-23T17:32:32.411Z,12.80
2023-04-23T17:35:10.578Z,12.80
2023-04-23T17:37:45.320Z,12.80
2023-04-23T17:40:18.996Z,12.80
2023-04-23T17:42:52.199Z,12.80
2023-04-23T17:45:25.213Z,12.70
2023-04-23T17:47:58.470Z,12.60
2023-04-23T17:50:31.650Z,12.70
2023-04-23T17:53:06.003Z,12.70
2023-04-23T17:55:39.122Z,12.70
2023-04-23T17:58:12.117Z,12.70
2023-04-23T18:00:45.145Z,12.60
2023-04-23T18:03:20.403Z,12.60
2023-04-23T18:05:53.944Z,12.50
2023-04-23T18:08:28.389Z,12.40
2023-04-23T18:11:01.563Z,12.30
2023-04-23T18:13:34.711Z,12.30
2023-04-23T18:16:07.731Z,12.30
2023-04-23T18:18:40.708Z,12.30
2023-04-23T18:21:14.688Z,12.30
2023-04-23T18:23:49.065Z,12.30
2023-04-23T18:26:22.148Z,12.20
2023-04-23T18:28:55.563Z,12.10
2023-04-23T18:31:28.697Z,12.00
2023-04-23T18:34:03.652Z,12.00
2023-04-23T18:36:39.278Z,12.00
2023-04-23T18:39:13.637Z,11.90
2023-04-23T18:41:48.450Z,12.00
2023-04-23T18:44:21.976Z,12.00
2023-04-23T18:46:55.077Z,12.00
2023-04-23T18:49:46.533Z,11.90
2023-04-23T18:52:19.538Z,11.90
2023-04-23T18:54:53.907Z,11.90
2023-04-23T18:57:27.125Z,11.90
2023-04-23T19:00:00.056Z,11.90
2023-04-23T19:02:35.764Z,11.80
2023-04-23T19:05:09.866Z,11.80
2023-04-23T19:07:43.491Z,11.80
2023-04-23T19:10:18.061Z,11.70
2023-04-23T19:12:51.003Z,11.70
2023-04-23T19:15:23.989Z,11.70
2023-04-23T19:17:57.021Z,11.70
2023-04-23T19:20:31.028Z,11.60
2023-04-23T19:23:04.879Z,11.50
2023-04-23T19:25:39.326Z,11.40
2023-04-23T19:28:12.507Z,11.40
2023-04-23T19:30:45.563Z,11.40
2023-04-23T19:33:18.629Z,11.50
2023-04-23T19:35:52.308Z,11.50
2023-04-23T19:38:25.332Z,11.40
2023-04-23T19:40:59.884Z,11.50
2023-04-23T19:43:32.887Z,11.40
2023-04-23T19:46:05.892Z,11.50
2023-04-23T19:48:39.028Z,11.40
2023-04-23T19:51:12.154Z,11.30
2023-04-23T19:53:45.201Z,11.30
2023-04-23T19:56:22.788Z,11.40
2023-04-23T19:58:55.801Z,11.40
2023-04-23T20:01:30.004Z,11.40
2023-04-23T20:04:07.045Z,11.50
2023-04-23T20:06:40.278Z,11.60
2023-04-23T20:09:18.817Z,11.60
2023-04-23T20:11:53.441Z,11.60
2023-04-23T20:14:26.701Z,11.50
2023-04-23T20:16:59.958Z,11.50
2023-04-23T20:19:33.216Z,11.50
2023-04-23T20:22:06.796Z,11.50
2023-04-23T20:24:40.344Z,11.50
2023-04-23T20:27:14.825Z,11.60
2023-04-23T20:29:48.362Z,11.60
2023-04-23T20:32:21.430Z,11.60
2023-04-23T20:34:54.619Z,11.60
2023-04-23T20:37:28.482Z,11.50
2023-04-23T20:40:01.656Z,11.50
2023-04-23T20:42:39.059Z,11.60
2023-04-23T20:45:14.281Z,11.50
2023-04-23T20:47:48.317Z,11.40
2023-04-23T20:50:21.625Z,11.40
2023-04-23T20:52:54.811Z,11.30
2023-04-23T20:55:28.053Z,11.30
2023-04-23T20:58:02.363Z,11.30
2023-04-23T21:00:36.819Z,11.20
2023-04-23T21:03:10.056Z,11.10
2023-04-23T21:05:44.596Z,11.10
2023-04-23T21:08:17.655Z,11.10
2023-04-23T21:10:50.963Z,11.10
2023-04-23T21:13:25.867Z,11.10
2023-04-23T21:15:58.966Z,11.00
2023-04-23T21:18:32.036Z,11.10
2023-04-23T21:21:05.747Z,10.90
2023-04-23T21:23:38.780Z,10.80
2023-04-23T21:26:11.770Z,10.90
2023-04-23T21:28:46.098Z,10.90
2023-04-23T21:31:33.689Z,10.90
2023-04-23T21:34:06.990Z,10.90
2023-04-23T21:36:40.119Z,10.70
2023-04-23T21:39:13.711Z,10.80
2023-04-23T21:41:47.157Z,10.80
2023-04-23T21:44:21.744Z,10.90
2023-04-23T21:46:54.748Z,10.90
2023-04-23T21:49:27.850Z,11.00
2023-04-23T21:52:02.205Z,11.00
2023-04-23T21:54:35.442Z,11.00
2023-04-23T21:57:08.481Z,10.90
2023-04-23T21:59:43.338Z,11.00
2023-04-23T22:02:16.554Z,11.00
2023-04-23T22:04:49.833Z,11.00
2023-04-23T22:07:23.660Z,11.00
2023-04-23T22:09:57.988Z,11.00
2023-04-23T22:12:31.014Z,11.00
2023-04-23T22:15:06.947Z,10.90
2023-04-23T22:17:40.752Z,10.90
2023-04-23T22:20:15.633Z,10.90
2023-04-23T22:22:48.629Z,10.90
2023-04-23T22:25:21.582Z,10.80
2023-04-23T22:27:54.727Z,10.80
2023-04-23T22:30:29.239Z,10.80
2023-04-23T22:33:02.396Z,10.80
2023-04-23T22:35:35.888Z,10.80
2023-04-23T22:38:09.260Z,10.80
2023-04-23T22:40:42.313Z,10.70
2023-04-23T22:43:15.267Z,10.70
2023-04-23T22:45:49.676Z,10.70
2023-04-23T22:48:23.740Z,10.70
2023-04-23T22:50:57.501Z,10.70
2023-04-23T22:53:30.537Z,10.70
2023-04-23T22:56:03.915Z,10.60
2023-04-23T22:58:37.554Z,10.70
2023-04-23T23:01:12.109Z,10.70
2023-04-23T23:03:45.218Z,10.80
2023-04-23T23:06:18.316Z,10.80
2023-04-23T23:08:51.325Z,10.70
2023-04-23T23:11:24.433Z,10.60
2023-04-23T23:13:57.514Z,10.50
2023-04-23T23:16:31.998Z,10.30
2023-04-23T23:19:05.225Z,10.40
2023-04-23T23:21:38.274Z,10.40
2023-04-23T23:24:11.398Z,10.40
2023-04-23T23:26:44.476Z,10.50
2023-04-23T23:29:18.085Z,10.30
2023-04-23T23:31:52.510Z,10.30
2023-04-23T23:34:25.568Z,10.40
2023-04-23T23:36:58.694Z,10.40
2023-04-23T23:39:31.770Z,10.30
2023-04-23T23:42:04.999Z,10.30
2023-04-23T23:44:37.985Z,10.40
2023-04-23T23:47:12.405Z,10.40
2023-04-23T23:49:45.514Z,10.50
2023-04-23T23:52:18.600Z,10.50
2023-04-23T23:54:51.588Z,10.40
2023-04-23T23:57:24.635Z,10.40
2023-04-23T23:59:57.752Z,10.40
